KOSC/OSC METAR and TAF weather

Enter ICAO airport designator
Station Type Date Time Source
KOSC METAR 2018/12/12 11:35 UTC NOAA

KOSC 121135Z AUTO 18003KT 10SM OVC025 M01/M05 A3003 RMK AO2 T10081046


Station Type Date Time Source
KOSC Decoded METAR 2018/12/12 11:35 UTC NOAA

Oscoda, Oscoda-Wurtsmith Airport, MI, United States (KOSC) 44-27N 083-22W
Dec 12, 2018 - 06:35 AM EST / 2018.12.12 1135 UTC
Wind: from the S (180 degrees) at 3 MPH (3 KT):0
Visibility: 10 mile(s):0
Sky conditions: overcast
Temperature: 30.6 F (-0.8 C)
Dew Point: 23.7 F (-4.6 C)
Relative Humidity: 75%
Pressure (altimeter): 30.03 in. Hg (1016 hPa)
ob: KOSC 121135Z AUTO 18003KT 10SM OVC025 M01/M05 A3003 RMK AO2 T10081046
cycle: 11

Station Type Date Time Source
KOSC TAF UTC NOAA

Error!


Example: see airport list